Time;durP1;ratioP1;P1;durP2;ratioP2;P2;SDS_P1;SDS_P2;PMS_P1;PMS_P2;Temp;Humidity;BMP_temperature;BMP_pressure;BME280_temperature;BME280_humidity;BME280_pressure;Samples;Min_cycle;Max_cycle;Signal;HPM_P1;HPM_P2
2023/11/07 00:00:06;;;;;;;16.27;5.50;;;;;;;12.51;76.43;100600.22;5030547;28;20072;-79
2023/11/07 00:02:31;;;;;;;12.73;5.53;;;;;;;12.59;75.97;100595.91;5029005;28;20110;-78
2023/11/07 00:04:56;;;;;;;12.75;5.55;;;;;;;12.66;75.72;100604.63;5029807;28;20052;-79
2023/11/07 00:07:24;;;;;;;13.65;5.70;;;;;;;12.51;76.97;100608.06;5029424;28;20091;-78
2023/11/07 00:09:56;;;;;;;12.60;5.47;;;;;;;12.43;76.83;100602.88;5031129;28;20041;-79
2023/11/07 00:12:21;;;;;;;12.02;5.15;;;;;;;12.70;76.09;100606.34;5012785;28;20034;-79
2023/11/07 00:14:46;;;;;;;10.70;5.25;;;;;;;12.73;75.43;100616.84;5030513;28;20094;-78
2023/11/07 00:17:12;;;;;;;8.90;5.00;;;;;;;12.83;75.18;100610.72;5034433;28;20037;-79
2023/11/07 00:19:37;;;;;;;14.63;5.30;;;;;;;12.76;74.70;100614.19;5034879;28;20449;-79
2023/11/07 00:22:03;;;;;;;13.10;5.18;;;;;;;12.46;76.31;100620.28;5035093;28;20037;-79
2023/11/07 00:24:29;;;;;;;10.82;4.90;;;;;;;12.81;75.22;100615.06;5034863;28;20033;-80
2023/11/07 00:26:54;;;;;;;10.38;5.40;;;;;;;12.57;76.24;100629.00;5034861;28;20037;-79
2023/11/07 00:29:28;;;;;;;12.38;5.38;;;;;;;12.70;75.85;100625.53;5038044;28;20044;-78
2023/11/07 00:31:59;;;;;;;11.57;5.10;;;;;;;12.47;76.28;100622.91;5041036;28;20603;-79
2023/11/07 00:34:24;;;;;;;12.40;5.35;;;;;;;12.63;75.95;100628.13;5037270;28;20036;-78
2023/11/07 00:36:50;;;;;;;10.40;4.97;;;;;;;12.66;75.63;100622.94;5039743;28;20041;-79
2023/11/07 00:39:21;;;;;;;12.75;4.97;;;;;;;12.66;75.27;100623.81;5017320;28;20112;-80
2023/11/07 00:41:47;;;;;;;10.05;4.82;;;;;;;12.62;75.33;100621.19;5033072;28;20041;-79
2023/11/07 00:44:13;;;;;;;12.00;4.90;;;;;;;12.58;75.34;100623.78;5053634;23;20385;-44
2023/11/07 00:46:38;;;;;;;10.27;4.63;;;;;;;12.68;74.89;100622.06;5052322;28;20033;-44
2023/11/07 00:49:06;;;;;;;14.13;5.05;;;;;;;12.77;75.09;100622.06;5052707;28;20033;-47
2023/11/07 00:51:32;;;;;;;12.57;5.13;;;;;;;12.91;73.79;100625.56;5049412;28;20057;-43
2023/11/07 00:53:57;;;;;;;8.73;4.53;;;;;;;12.91;73.91;100629.91;5032888;28;20136;-43
2023/11/07 00:56:23;;;;;;;12.90;5.30;;;;;;;12.96;73.86;100633.41;5032024;28;20108;-45
2023/11/07 00:58:48;;;;;;;13.15;5.32;;;;;;;12.77;74.94;100635.13;5032616;28;20036;-43
2023/11/07 01:01:16;;;;;;;12.55;5.20;;;;;;;12.97;73.87;100649.09;5032776;28;20048;-43
2023/11/07 01:03:42;;;;;;;11.77;4.80;;;;;;;13.07;73.87;100646.47;5032463;28;20555;-49
2023/11/07 01:06:08;;;;;;;12.13;4.82;;;;;;;12.91;73.96;100654.34;5032802;28;20084;-44
2023/11/07 01:08:33;;;;;;;12.30;4.47;;;;;;;13.07;74.21;100652.59;5031687;28;20133;-46
2023/11/07 01:10:58;;;;;;;10.23;4.60;;;;;;;13.21;73.38;100658.72;5032575;28;20069;-46
2023/11/07 01:13:24;;;;;;;9.77;4.50;;;;;;;13.02;73.68;100664.81;5032324;28;20040;-44
2023/11/07 01:15:49;;;;;;;8.55;4.60;;;;;;;13.09;74.17;100665.69;5032768;28;20033;-46
2023/11/07 01:18:15;;;;;;;9.80;4.40;;;;;;;13.23;73.67;100663.97;5014779;28;20041;-45
2023/11/07 01:20:41;;;;;;;12.85;5.00;;;;;;;13.18;73.71;100668.31;5032287;28;20030;-49
2023/11/07 01:23:07;;;;;;;9.77;4.70;;;;;;;13.21;74.16;100673.56;5032254;28;20052;-46
2023/11/07 01:25:32;;;;;;;9.60;4.32;;;;;;;12.99;75.56;100670.06;5031021;28;20478;-45
2023/11/07 01:27:57;;;;;;;10.95;4.40;;;;;;;13.37;74.16;100659.56;5032421;28;20045;-46
2023/11/07 01:30:23;;;;;;;11.70;4.47;;;;;;;13.51;73.68;100660.44;5014530;28;20033;-45
2023/11/07 01:32:50;;;;;;;10.13;4.47;;;;;;;13.62;73.04;100642.94;5032384;28;20121;-45
2023/11/07 01:35:16;;;;;;;11.63;4.13;;;;;;;13.60;73.42;100643.84;5032691;28;20124;-48
2023/11/07 01:37:42;;;;;;;10.52;4.53;;;;;;;13.62;73.01;100647.28;5031655;28;20036;-44
2023/11/07 01:40:09;;;;;;;8.23;3.92;;;;;;;13.50;73.38;100649.94;5032396;28;20124;-48
2023/11/07 01:42:50;;;;;;;9.57;3.78;;;;;;;13.71;72.90;100642.91;5031729;28;20127;-46
2023/11/07 01:45:17;;;;;;;9.65;4.20;;;;;;;13.63;72.98;100639.44;5031724;28;20033;-47
2023/11/07 01:47:45;;;;;;;8.20;3.42;;;;;;;13.68;72.96;100628.94;5031434;28;20045;-45
2023/11/07 01:50:11;;;;;;;9.25;3.70;;;;;;;13.78;72.89;100639.38;5032439;28;20037;-45
2023/11/07 01:52:38;;;;;;;8.90;3.80;;;;;;;13.49;74.07;100638.59;5032288;28;20091;-44
2023/11/07 01:55:07;;;;;;;11.25;3.60;;;;;;;13.67;73.34;100645.53;5014778;28;20040;-47
2023/11/07 01:57:33;;;;;;;9.40;3.70;;;;;;;13.78;72.85;100639.38;5032063;28;20044;-45
2023/11/07 01:59:59;;;;;;;9.82;4.00;;;;;;;13.72;73.31;100639.41;5032633;28;20034;-44
2023/11/07 02:02:25;;;;;;;14.60;3.60;;;;;;;13.66;73.47;100641.19;5031798;28;20041;-45
2023/11/07 02:04:50;;;;;;;11.93;3.10;;;;;;;13.38;74.37;100650.84;5032974;28;20124;-44
2023/11/07 02:07:15;;;;;;;8.85;3.33;;;;;;;13.74;73.33;100653.38;5032958;28;20046;-44
2023/11/07 02:09:42;;;;;;;9.40;3.17;;;;;;;13.62;73.85;100650.78;5033043;28;20049;-46
2023/11/07 02:12:10;;;;;;;9.35;3.00;;;;;;;13.56;74.39;100663.91;5032590;28;20037;-48
2023/11/07 02:14:36;;;;;;;8.75;3.05;;;;;;;13.51;74.46;100668.28;5030712;28;20124;-45
2023/11/07 02:17:04;;;;;;;8.05;3.05;;;;;;;13.67;73.67;100664.75;5031097;28;20047;-43
2023/11/07 02:19:31;;;;;;;13.60;3.00;;;;;;;13.71;73.34;100665.63;5030204;28;20061;-44
2023/11/07 02:22:01;;;;;;;9.43;2.85;;;;;;;13.85;72.95;100671.69;5013277;28;20128;-45
2023/11/07 02:24:30;;;;;;;6.55;2.70;;;;;;;13.87;72.73;100666.44;5030597;28;20041;-46
2023/11/07 02:26:57;;;;;;;9.63;2.83;;;;;;;13.86;72.80;100672.56;5030858;28;20112;-43
2023/11/07 02:29:22;;;;;;;9.60;3.33;;;;;;;13.83;72.74;100665.59;5030503;28;20503;-44
2023/11/07 02:31:49;;;;;;;8.43;2.80;;;;;;;13.66;73.16;100672.63;5030894;28;20057;-46
2023/11/07 02:34:14;;;;;;;8.75;2.92;;;;;;;13.85;72.59;100663.81;5030737;28;20045;-45
2023/11/07 02:36:40;;;;;;;10.40;2.90;;;;;;;13.96;71.90;100663.81;5030045;28;20387;-44
2023/11/07 02:39:07;;;;;;;8.02;2.90;;;;;;;13.92;71.88;100662.03;5011901;28;20553;-45
2023/11/07 02:41:35;;;;;;;9.40;3.00;;;;;;;13.91;71.73;100655.94;5030225;28;20101;-46
2023/11/07 02:44:01;;;;;;;7.50;3.10;;;;;;;13.90;71.61;100655.97;5030632;28;20037;-47
2023/11/07 02:46:26;;;;;;;7.07;2.95;;;;;;;13.80;71.97;100652.47;5028194;28;20041;-46
2023/11/07 02:48:52;;;;;;;5.63;2.70;;;;;;;13.82;71.51;100655.97;5031295;28;20547;-43
2023/11/07 02:51:18;;;;;;;7.75;3.08;;;;;;;13.78;71.78;100660.34;5031588;28;20175;-44
2023/11/07 02:53:47;;;;;;;7.90;2.90;;;;;;;13.83;71.49;100657.72;5030806;28;20036;-44
2023/11/07 02:56:12;;;;;;;6.57;3.25;;;;;;;13.77;71.46;100655.13;5031334;28;20038;-47
2023/11/07 02:58:38;;;;;;;11.10;3.35;;;;;;;13.82;71.02;100651.63;5029971;28;20046;-48
2023/11/07 03:01:04;;;;;;;7.10;3.38;;;;;;;13.84;70.90;100661.22;5030498;28;20116;-45
2023/11/07 03:03:32;;;;;;;7.63;3.20;;;;;;;13.62;71.46;100663.88;5029950;28;20140;-45
2023/11/07 03:05:58;;;;;;;5.78;2.88;;;;;;;13.70;71.29;100658.63;5030379;28;20038;-44
2023/11/07 03:08:23;;;;;;;6.72;2.95;;;;;;;13.61;70.93;100663.88;5029827;28;20043;-46
2023/11/07 03:10:49;;;;;;;9.88;2.90;;;;;;;13.58;70.87;100659.53;5030381;28;20041;-46
2023/11/07 03:13:14;;;;;;;8.05;3.08;;;;;;;13.56;71.21;100656.03;5030092;28;20030;-46
2023/11/07 03:15:40;;;;;;;6.53;2.80;;;;;;;13.69;70.69;100656.88;5029677;28;20044;-49
2023/11/07 03:18:05;;;;;;;8.40;3.10;;;;;;;13.73;70.33;100658.63;5029822;28;20034;-44
2023/11/07 03:20:32;;;;;;;7.75;3.00;;;;;;;13.51;71.15;100655.19;5029649;28;20041;-44
2023/11/07 03:22:58;;;;;;;6.28;2.72;;;;;;;13.55;70.69;100653.41;5029874;28;20067;-47
2023/11/07 03:25:23;;;;;;;7.32;2.85;;;;;;;13.32;70.91;100654.34;5029322;28;20061;-44
2023/11/07 03:27:48;;;;;;;12.23;2.80;;;;;;;13.53;70.31;100658.69;5029834;28;20041;-46
2023/11/07 03:30:14;;;;;;;7.50;2.83;;;;;;;13.48;70.31;100660.41;5029307;28;20041;-46
2023/11/07 03:32:41;;;;;;;8.90;2.80;;;;;;;13.45;69.91;100657.81;5029176;28;20052;-45
2023/11/07 03:35:06;;;;;;;7.10;2.97;;;;;;;13.33;69.95;100663.94;5029714;28;20042;-46
2023/11/07 03:37:32;;;;;;;10.55;3.03;;;;;;;13.17;70.49;100664.84;5028962;28;20498;-44
2023/11/07 03:39:57;;;;;;;9.27;3.00;;;;;;;13.25;69.83;100659.59;5029970;28;20124;-48
2023/11/07 03:42:22;;;;;;;7.53;2.92;;;;;;;13.22;69.42;100655.25;5029328;28;20488;-46
2023/11/07 03:44:48;;;;;;;6.25;2.50;;;;;;;13.17;69.64;100661.34;5029700;28;20041;-44
2023/11/07 03:47:14;;;;;;;6.18;2.55;;;;;;;13.10;69.95;100663.06;5029679;28;20049;-46
2023/11/07 03:49:39;;;;;;;5.07;2.67;;;;;;;13.07;70.27;100665.66;5028916;28;20045;-45
2023/11/07 03:52:04;;;;;;;7.93;2.85;;;;;;;13.01;70.23;100668.28;5029599;28;20040;-48
2023/11/07 03:54:30;;;;;;;6.95;2.63;;;;;;;13.07;70.13;100667.41;5028738;28;20384;-44
2023/11/07 03:56:55;;;;;;;6.03;2.88;;;;;;;12.78;70.92;100672.63;5029493;28;20048;-45
2023/11/07 03:59:20;;;;;;;5.85;2.38;;;;;;;12.94;70.88;100667.41;5029346;28;20037;-46
2023/11/07 04:01:46;;;;;;;6.57;2.70;;;;;;;13.00;70.28;100669.16;5029672;28;20111;-44
2023/11/07 04:04:11;;;;;;;5.97;2.10;;;;;;;12.95;70.35;100677.00;5029399;28;20103;-47
2023/11/07 04:06:36;;;;;;;6.50;1.90;;;;;;;13.10;69.59;100670.91;5028797;28;20041;-48
2023/11/07 04:09:02;;;;;;;3.95;2.00;;;;;;;13.02;69.64;100672.66;5029346;28;20076;-47
2023/11/07 04:11:28;;;;;;;5.20;1.77;;;;;;;12.96;69.76;100676.13;5028734;28;20655;-47
2023/11/07 04:13:53;;;;;;;6.60;1.40;;;;;;;12.84;70.23;100675.25;5029463;28;20121;-46
2023/11/07 04:16:19;;;;;;;2.70;1.60;;;;;;;12.75;70.76;100676.09;5029572;28;20116;-47
2023/11/07 04:18:44;;;;;;;2.67;1.48;;;;;;;12.81;70.08;100683.09;5029273;28;20033;-45
2023/11/07 04:21:10;;;;;;;3.38;1.30;;;;;;;12.51;70.71;100679.56;5011640;28;20041;-44
2023/11/07 04:23:36;;;;;;;3.90;1.10;;;;;;;12.68;70.25;100678.75;5028778;28;20048;-47
2023/11/07 04:26:02;;;;;;;2.88;1.05;;;;;;;12.67;70.19;100680.47;5029620;28;20053;-44
2023/11/07 04:28:27;;;;;;;1.88;0.80;;;;;;;12.51;70.57;100674.31;5029014;28;20068;-44
2023/11/07 04:30:53;;;;;;;1.88;0.70;;;;;;;12.64;70.25;100676.97;5029486;28;20037;-43
2023/11/07 04:33:19;;;;;;;2.28;0.70;;;;;;;12.62;70.21;100678.72;5029562;28;20034;-45
2023/11/07 04:35:45;;;;;;;3.45;0.95;;;;;;;12.50;70.62;100675.19;5028937;28;20029;-47
2023/11/07 04:38:10;;;;;;;3.75;0.70;;;;;;;12.68;70.05;100669.16;5029424;28;20514;-44
2023/11/07 04:40:40;;;;;;;3.20;0.90;;;;;;;12.84;68.84;100678.75;5029143;28;20033;-48
2023/11/07 04:43:05;;;;;;;1.27;0.80;;;;;;;12.58;69.51;100672.59;5029503;28;20148;-45
2023/11/07 04:45:31;;;;;;;3.78;0.80;;;;;;;12.68;69.47;100679.63;5028443;28;20416;-44
2023/11/07 04:47:56;;;;;;;1.80;0.80;;;;;;;12.78;69.41;100683.09;5029460;28;20044;-44
2023/11/07 04:50:22;;;;;;;1.73;0.90;;;;;;;12.35;69.99;100688.22;5029219;28;20128;-44
2023/11/07 04:52:47;;;;;;;4.47;0.80;;;;;;;12.63;69.09;100685.66;5029324;28;20411;-42
2023/11/07 04:55:13;;;;;;;2.17;0.90;;;;;;;12.74;68.42;100691.81;5012067;28;20029;-44
2023/11/07 04:57:38;;;;;;;2.08;0.80;;;;;;;12.74;67.90;100692.69;5029232;28;20036;-44
2023/11/07 05:00:05;;;;;;;3.42;0.85;;;;;;;12.68;68.05;100687.47;5029750;28;20117;-45
2023/11/07 05:02:31;;;;;;;2.08;0.90;;;;;;;12.36;69.74;100695.22;5032218;28;20048;-44
2023/11/07 05:04:56;;;;;;;1.23;0.70;;;;;;;12.53;69.20;100692.63;5033536;28;20469;-46
2023/11/07 05:07:22;;;;;;;1.70;0.73;;;;;;;12.69;68.12;100691.78;5032642;28;20707;-45
2023/11/07 05:09:47;;;;;;;3.75;0.93;;;;;;;12.47;68.91;100692.63;5016030;28;20096;-44
2023/11/07 05:12:13;;;;;;;3.60;0.70;;;;;;;12.40;68.91;100686.50;5034132;28;20048;-44
2023/11/07 05:14:38;;;;;;;1.50;0.60;;;;;;;12.51;68.53;100697.84;5033530;28;20033;-44
2023/11/07 05:17:04;;;;;;;1.50;0.80;;;;;;;12.45;69.37;100694.34;5015991;28;20549;-45
2023/11/07 05:19:30;;;;;;;1.63;0.63;;;;;;;12.38;68.83;100705.69;5032023;28;20535;-45
2023/11/07 05:21:56;;;;;;;2.83;0.73;;;;;;;12.40;69.30;100693.47;5032092;28;20045;-50
2023/11/07 05:24:22;;;;;;;2.28;0.70;;;;;;;12.25;69.78;100689.09;5031478;28;20537;-44
2023/11/07 05:26:47;;;;;;;5.47;0.70;;;;;;;12.40;68.63;100696.09;5031959;28;20696;-45
2023/11/07 05:29:13;;;;;;;1.05;0.60;;;;;;;12.43;68.57;100696.09;5032091;28;20045;-45
2023/11/07 05:31:39;;;;;;;2.75;0.80;;;;;;;12.35;69.18;100700.44;5031525;28;20048;-44
2023/11/07 05:34:06;;;;;;;1.35;0.60;;;;;;;11.96;70.54;100706.34;5031904;28;20041;-45
2023/11/07 05:36:31;;;;;;;1.70;0.70;;;;;;;11.92;70.45;100702.88;5031299;28;20034;-46
2023/11/07 05:38:57;;;;;;;2.50;0.60;;;;;;;11.79;71.56;100701.91;5032123;28;20033;-47
2023/11/07 05:41:23;;;;;;;1.10;0.60;;;;;;;11.72;72.50;100700.09;5031402;28;20496;-48
2023/11/07 05:43:49;;;;;;;1.35;0.50;;;;;;;11.75;72.21;100705.38;5031756;28;20072;-43
2023/11/07 05:46:18;;;;;;;2.30;0.63;;;;;;;11.89;71.60;100704.59;5031878;28;20538;-45
2023/11/07 05:48:44;;;;;;;2.80;0.60;;;;;;;11.47;73.40;100706.03;5031655;28;20048;-46
2023/11/07 05:51:10;;;;;;;1.13;0.60;;;;;;;11.54;73.60;100715.66;5031582;28;20150;-45
2023/11/07 05:53:35;;;;;;;3.53;0.70;;;;;;;11.67;73.17;100716.59;5030961;28;20134;-48
2023/11/07 05:56:01;;;;;;;1.63;0.52;;;;;;;11.75;73.16;100713.22;5031642;28;20614;-42
2023/11/07 05:58:27;;;;;;;1.45;0.60;;;;;;;11.83;72.33;100708.06;5013215;28;20041;-46
2023/11/07 06:00:54;;;;;;;1.02;0.55;;;;;;;11.77;72.43;100706.25;5031559;28;20455;-46
2023/11/07 06:03:19;;;;;;;0.75;0.57;;;;;;;11.66;73.31;100713.13;5031809;28;20060;-45
2023/11/07 06:05:45;;;;;;;1.13;0.60;;;;;;;11.91;71.97;100711.56;5031002;28;20476;-46
2023/11/07 06:08:10;;;;;;;2.10;0.70;;;;;;;11.94;71.40;100708.09;5013532;28;20108;-45
2023/11/07 06:10:36;;;;;;;2.10;0.73;;;;;;;11.89;71.55;100712.44;5030729;28;20412;-48
2023/11/07 06:13:04;;;;;;;1.25;0.70;;;;;;;11.71;72.05;100707.94;5031038;28;20047;-44
2023/11/07 06:15:31;;;;;;;4.05;0.90;;;;;;;11.57;73.25;100720.03;5030748;28;20739;-44
2023/11/07 06:17:56;;;;;;;2.20;0.80;;;;;;;11.74;72.59;100713.22;5031075;28;20060;-44
2023/11/07 06:20:23;;;;;;;1.77;0.88;;;;;;;11.66;73.13;100722.69;5030592;28;20438;-46
2023/11/07 06:22:48;;;;;;;3.80;0.80;;;;;;;11.87;72.42;100717.63;5030757;28;20033;-47
2023/11/07 06:25:15;;;;;;;1.50;0.80;;;;;;;11.46;72.75;100717.34;5030901;28;20138;-48
2023/11/07 06:27:41;;;;;;;3.20;0.80;;;;;;;11.73;72.81;100719.25;5030283;28;20042;-48
2023/11/07 06:30:08;;;;;;;2.28;0.95;;;;;;;11.86;71.71;100718.50;5031090;28;20037;-44
2023/11/07 06:32:33;;;;;;;4.78;0.98;;;;;;;11.73;72.04;100728.00;5030491;28;20037;-46
2023/11/07 06:34:58;;;;;;;4.00;0.90;;;;;;;11.75;72.24;100726.28;5031107;28;20508;-46
2023/11/07 06:37:24;;;;;;;3.15;0.80;;;;;;;11.74;71.67;100727.13;5031073;28;20132;-44
2023/11/07 06:39:49;;;;;;;4.32;1.00;;;;;;;11.71;72.11;100729.69;5031195;28;20077;-41
2023/11/07 06:42:17;;;;;;;1.90;0.90;;;;;;;11.69;72.04;100722.72;5030999;28;20041;-46
2023/11/07 06:44:42;;;;;;;2.35;0.80;;;;;;;11.75;71.89;100728.03;5030642;28;20059;-45
2023/11/07 06:47:08;;;;;;;1.92;0.90;;;;;;;11.75;71.69;100738.47;5030520;28;20124;-44
2023/11/07 06:49:33;;;;;;;2.10;0.90;;;;;;;11.55;72.98;100738.28;5029882;28;20045;-44
2023/11/07 06:51:59;;;;;;;4.03;1.10;;;;;;;11.68;72.46;100731.41;5030833;28;20044;-44
2023/11/07 06:54:25;;;;;;;3.63;1.20;;;;;;;11.69;72.19;100733.16;5030093;28;20499;-44
2023/11/07 06:56:50;;;;;;;3.28;0.90;;;;;;;11.67;72.21;100738.38;5030819;28;20128;-43
2023/11/07 06:59:17;;;;;;;3.08;0.90;;;;;;;11.54;73.25;100739.16;5030754;28;20033;-48
2023/11/07 07:01:44;;;;;;;2.17;1.17;;;;;;;11.73;72.29;100743.66;5030141;28;20091;-44
2023/11/07 07:04:11;;;;;;;5.03;1.00;;;;;;;11.66;72.64;100741.84;5029969;28;20027;-45
2023/11/07 07:06:36;;;;;;;5.25;0.90;;;;;;;11.81;71.83;100742.84;5029558;28;20522;-44
2023/11/07 07:09:04;;;;;;;2.85;0.82;;;;;;;11.78;71.69;100748.91;5030191;28;20033;-44
2023/11/07 07:11:31;;;;;;;3.50;0.88;;;;;;;11.83;71.78;100748.97;5029620;28;20052;-45
2023/11/07 07:13:57;;;;;;;1.60;0.90;;;;;;;11.68;71.86;100757.53;5030583;28;20030;-47
2023/11/07 07:16:23;;;;;;;4.30;1.20;;;;;;;11.84;71.14;100756.78;5029711;28;20034;-49
2023/11/07 07:18:49;;;;;;;4.30;1.10;;;;;;;11.68;72.03;100763.63;5029848;28;20041;-46
2023/11/07 07:21:16;;;;;;;6.50;1.00;;;;;;;11.87;71.32;100769.00;5030151;28;20041;-46
2023/11/07 07:23:46;;;;;;;4.50;1.50;;;;;;;11.69;71.42;100768.00;5029213;28;20098;-45
2023/11/07 07:26:14;;;;;;;2.72;1.00;;;;;;;11.97;70.75;100765.56;5029957;28;20546;-43
2023/11/07 07:28:40;;;;;;;3.20;1.10;;;;;;;12.02;69.94;100771.69;5029245;28;20061;-45
2023/11/07 07:31:06;;;;;;;1.55;1.00;;;;;;;12.10;69.45;100772.63;5030210;28;20095;-44
2023/11/07 07:33:35;;;;;;;1.85;0.80;;;;;;;12.14;69.13;100771.75;5029683;28;20037;-45
2023/11/07 07:36:04;;;;;;;2.67;0.98;;;;;;;11.97;69.90;100769.06;5030840;28;20124;-43
2023/11/07 07:38:31;;;;;;;1.73;0.80;;;;;;;11.77;70.66;100765.47;5030867;28;20044;-44
2023/11/07 07:41:00;;;;;;;2.95;0.88;;;;;;;11.63;71.34;100775.78;5031622;28;20503;-46
2023/11/07 07:43:26;;;;;;;1.88;0.70;;;;;;;12.15;69.61;100774.41;5030382;28;20040;-43
2023/11/07 07:45:52;;;;;;;6.00;0.95;;;;;;;12.20;69.21;100782.25;5012504;28;20120;-43
2023/11/07 07:48:19;;;;;;;2.25;0.90;;;;;;;12.10;70.16;100770.00;5029744;28;20128;-48
2023/11/07 07:50:46;;;;;;;2.50;0.88;;;;;;;12.24;69.95;100778.81;5029518;28;20029;-42
2023/11/07 07:53:15;;;;;;;3.65;1.10;;;;;;;12.38;69.43;100792.81;5030092;28;20170;-47
2023/11/07 07:55:44;;;;;;;3.85;1.00;;;;;;;12.52;69.20;100785.91;5029304;28;20068;-43
2023/11/07 07:58:18;;;;;;;2.72;1.30;;;;;;;12.55;68.99;100785.94;5030101;28;20087;-43
2023/11/07 08:00:49;;;;;;;;;;;;;;;12.37;68.94;100793.69;5029953;28;20025;-44
2023/11/07 08:03:16;;;;;;;3.17;1.13;;;;;;;12.48;69.08;100788.50;5030405;28;19940;-43
2023/11/07 08:05:44;;;;;;;3.08;1.30;;;;;;;12.21;70.27;100794.47;5029606;28;20033;-44
2023/11/07 08:08:10;;;;;;;4.72;1.30;;;;;;;12.30;70.25;100798.88;5030503;28;20034;-43
2023/11/07 08:10:36;;;;;;;3.83;1.50;;;;;;;12.36;70.42;100802.41;5012084;28;20041;-45
2023/11/07 08:13:06;;;;;;;4.60;1.60;;;;;;;12.10;70.82;100799.63;5030651;28;20045;-44
2023/11/07 08:15:31;;;;;;;4.70;1.40;;;;;;;12.44;70.78;100805.06;5029980;28;20064;-44
2023/11/07 08:17:57;;;;;;;5.20;1.67;;;;;;;12.60;70.38;100805.13;5029974;28;20037;-45
2023/11/07 08:20:23;;;;;;;9.73;1.52;;;;;;;12.77;69.96;100804.31;5030465;28;20038;-44
2023/11/07 08:22:49;;;;;;;7.95;1.60;;;;;;;12.47;70.61;100802.44;5030774;28;20037;-44
2023/11/07 08:25:17;;;;;;;2.08;1.33;;;;;;;12.69;70.04;100799.03;5030863;28;20033;-44
2023/11/07 08:27:44;;;;;;;4.32;1.60;;;;;;;12.53;70.53;100799.84;5030418;28;20033;-45
2023/11/07 08:30:12;;;;;;;3.63;1.52;;;;;;;12.51;70.58;100804.19;5031598;28;20140;-45
2023/11/07 08:32:42;;;;;;;4.45;1.83;;;;;;;12.82;69.68;100800.81;5012806;28;20491;-45
2023/11/07 08:35:10;;;;;;;7.57;1.52;;;;;;;12.60;70.57;100814.72;5030415;28;20033;-43
2023/11/07 08:37:35;;;;;;;3.55;1.70;;;;;;;12.84;70.34;100814.78;5032057;28;20042;-43
2023/11/07 08:40:03;;;;;;;3.45;1.80;;;;;;;12.87;69.87;100825.25;5033398;28;20099;-44
2023/11/07 08:42:29;;;;;;;3.92;1.73;;;;;;;12.95;70.73;100830.53;5015119;28;20033;-46
2023/11/07 08:44:54;;;;;;;6.63;2.00;;;;;;;12.99;69.45;100834.91;5032814;28;20056;-47
2023/11/07 08:47:20;;;;;;;4.97;1.67;;;;;;;13.16;69.59;100830.63;5032594;28;20037;-45
2023/11/07 08:49:45;;;;;;;4.40;1.75;;;;;;;13.68;68.23;100836.78;5032497;28;20038;-45
2023/11/07 08:52:11;;;;;;;4.47;1.73;;;;;;;13.85;66.64;100842.00;5032905;28;20036;-44
2023/11/07 08:54:36;;;;;;;3.60;1.55;;;;;;;13.78;67.22;100845.53;5032299;28;20036;-44
2023/11/07 08:57:02;;;;;;;4.75;1.90;;;;;;;14.14;65.99;100845.50;5032780;28;20377;-44
2023/11/07 08:59:28;;;;;;;2.83;1.52;;;;;;;14.18;66.47;100844.59;5032498;28;20035;-44
2023/11/07 09:01:55;;;;;;;4.18;1.70;;;;;;;14.35;66.00;100841.94;5032676;28;20450;-46
2023/11/07 09:04:20;;;;;;;5.20;1.70;;;;;;;14.05;66.36;100837.63;5032644;28;20065;-45
2023/11/07 09:06:45;;;;;;;5.15;1.70;;;;;;;14.29;66.09;100844.56;5032102;28;20534;-46
2023/11/07 09:09:14;;;;;;;5.43;1.90;;;;;;;13.70;69.25;100836.78;5032128;28;20073;-46
2023/11/07 09:11:41;;;;;;;5.22;1.70;;;;;;;13.53;69.19;100834.16;5031705;28;20044;-47
2023/11/07 09:14:07;;;;;;;5.13;1.80;;;;;;;13.63;68.93;100841.16;5032433;28;20463;-45
2023/11/07 09:16:32;;;;;;;6.95;1.90;;;;;;;13.70;68.92;100852.50;5032070;28;20037;-45
2023/11/07 09:18:58;;;;;;;5.57;1.90;;;;;;;13.83;68.30;100843.78;5032648;28;20057;-44
2023/11/07 09:21:23;;;;;;;5.20;1.80;;;;;;;13.62;68.92;100842.03;5031934;28;20034;-47
2023/11/07 09:23:50;;;;;;;5.43;1.88;;;;;;;13.58;69.69;100850.75;5032128;28;20091;-47
2023/11/07 09:26:16;;;;;;;7.07;1.85;;;;;;;13.72;69.29;100850.78;5031917;28;20051;-44
2023/11/07 09:28:43;;;;;;;4.75;1.60;;;;;;;13.76;68.65;100853.38;5031925;28;20041;-50
2023/11/07 09:31:08;;;;;;;9.45;1.90;;;;;;;13.47;68.98;100854.25;5032170;28;20047;-44
2023/11/07 09:33:34;;;;;;;5.95;2.20;;;;;;;13.30;69.86;100852.44;5031800;28;20060;-46
2023/11/07 09:36:00;;;;;;;7.75;1.77;;;;;;;13.21;70.59;100855.06;5031966;28;20044;-46
2023/11/07 09:38:27;;;;;;;8.65;1.80;;;;;;;13.43;69.94;100855.09;5031236;28;20038;-45
2023/11/07 09:40:53;;;;;;;5.57;1.55;;;;;;;13.34;69.97;100867.31;5032007;28;20117;-45
2023/11/07 09:43:19;;;;;;;7.00;1.80;;;;;;;13.41;70.33;100860.34;5032369;28;20586;-49
2023/11/07 09:45:46;;;;;;;5.38;1.60;;;;;;;13.36;70.27;100864.69;5031675;28;20109;-49
2023/11/07 09:48:13;;;;;;;4.45;1.80;;;;;;;13.54;69.86;100862.09;5031158;28;20589;-46
2023/11/07 09:50:41;;;;;;;4.82;1.50;;;;;;;13.40;70.00;100856.84;5013572;28;20076;-44
2023/11/07 09:53:11;;;;;;;5.32;1.60;;;;;;;13.57;70.13;100861.22;5031505;28;20082;-46
2023/11/07 09:55:38;;;;;;;3.63;1.55;;;;;;;13.48;70.22;100861.22;5031176;28;20042;-47
2023/11/07 09:58:07;;;;;;;7.00;1.70;;;;;;;13.70;69.13;100863.88;5031332;28;20057;-46
2023/11/07 10:00:37;;;;;;;4.65;1.60;;;;;;;13.69;69.43;100866.47;5031444;28;20040;-45
2023/11/07 10:03:02;;;;;;;5.38;1.65;;;;;;;13.55;69.88;100879.56;5031536;28;20116;-47
2023/11/07 10:05:30;;;;;;;4.75;1.33;;;;;;;13.58;69.60;100892.66;5031234;28;20117;-48
2023/11/07 10:07:57;;;;;;;6.82;1.48;;;;;;;13.78;68.69;100883.06;5031726;28;20037;-46
2023/11/07 10:10:24;;;;;;;5.25;1.50;;;;;;;13.94;68.00;100880.47;5031314;28;20044;-44
2023/11/07 10:12:50;;;;;;;4.75;1.50;;;;;;;14.16;67.33;100872.56;5031455;28;20122;-44
2023/11/07 10:15:19;;;;;;;7.22;1.50;;;;;;;13.76;68.32;100881.34;5013337;28;20084;-44
2023/11/07 10:18:10;;;;;;;3.95;1.40;;;;;;;13.89;68.47;100877.84;5030710;28;20064;-46
2023/11/07 10:20:48;;;;;;;4.00;1.30;;;;;;;14.11;67.52;100889.19;5031208;28;20706;-43
2023/11/07 10:23:14;;;;;;;5.75;1.60;;;;;;;13.95;67.38;100882.22;5013944;28;20033;-45
2023/11/07 10:25:39;;;;;;;5.32;1.30;;;;;;;14.35;66.56;100890.91;5030718;28;20025;-45
2023/11/07 10:28:06;;;;;;;5.45;1.52;;;;;;;14.27;66.53;100890.06;5031119;28;20026;-45
2023/11/07 10:30:45;;;;;;;6.07;1.30;;;;;;;13.78;67.64;100875.19;5030825;28;20107;-44
2023/11/07 10:33:23;;;;;;;5.82;1.73;;;;;;;14.18;67.02;100885.69;5031358;28;20037;-44
2023/11/07 10:35:54;;;;;;;5.22;1.40;;;;;;;14.05;67.87;100891.81;5030976;28;20503;-43
2023/11/07 10:38:23;;;;;;;3.78;1.20;;;;;;;14.20;66.81;100891.81;5031375;28;20385;-44
2023/11/07 10:40:49;;;;;;;6.88;1.35;;;;;;;14.58;65.38;100892.63;5030627;28;20041;-44
2023/11/07 10:43:31;;;;;;;3.65;1.30;;;;;;;14.41;66.21;100889.16;5030951;28;20095;-45
2023/11/07 10:46:00;;;;;;;5.80;1.40;;;;;;;14.65;65.58;100889.97;5030756;28;20095;-45
2023/11/07 10:48:26;;;;;;;7.72;1.38;;;;;;;14.37;66.59;100894.41;5012395;28;20060;-46
2023/11/07 10:50:53;;;;;;;10.27;1.60;;;;;;;14.57;66.08;100898.78;5030642;28;20100;-44
2023/11/07 10:53:18;;;;;;;4.50;1.20;;;;;;;14.97;64.94;100902.13;5030568;28;20511;-48
2023/11/07 10:55:45;;;;;;;4.40;1.30;;;;;;;14.67;65.52;100891.72;5030342;28;20057;-44
2023/11/07 10:58:16;;;;;;;5.45;1.40;;;;;;;14.60;66.38;100892.63;5030254;28;20108;-47
2023/11/07 11:00:42;;;;;;;8.18;1.50;;;;;;;14.84;65.03;100892.53;5030075;28;20088;-44
2023/11/07 11:03:12;;;;;;;5.68;1.20;;;;;;;14.94;64.71;100896.03;5030421;28;20124;-46
2023/11/07 11:05:40;;;;;;;7.35;1.35;;;;;;;14.83;64.19;100893.41;5029673;28;20505;-44
2023/11/07 11:08:09;;;;;;;9.82;1.60;;;;;;;14.85;64.17;100896.03;5030383;28;20068;-45
2023/11/07 11:10:37;;;;;;;3.50;1.00;;;;;;;15.49;62.46;100879.97;5029796;28;20030;-47
2023/11/07 11:13:03;;;;;;;8.30;1.30;;;;;;;15.65;61.95;100882.50;5030614;28;20030;-46
2023/11/07 11:15:31;;;;;;;5.18;1.30;;;;;;;15.56;61.29;100876.44;5029848;28;20033;-46
2023/11/07 11:18:13;;;;;;;8.10;1.33;;;;;;;15.54;60.73;100891.34;5030384;28;20049;-44
2023/11/07 11:20:45;;;;;;;7.78;1.50;;;;;;;15.29;62.46;100880.09;5029788;28;20042;-45